Time;durP1;ratioP1;P1;durP2;ratioP2;P2;SDS_P1;SDS_P2;PMS_P1;PMS_P2;Temp;Humidity;BMP_temperature;BMP_pressure;BME280_temperature;BME280_humidity;BME280_pressure;Samples;Min_cycle;Max_cycle;Signal;HPM_P1;HPM_P2
2021/12/24 00:01:04;;;;;;;5.27;2.53;;;;;;;10.53;66.08;98115.13;5054428;28;20209;-59
2021/12/24 00:03:31;;;;;;;6.60;3.03;;;;;;;10.50;65.86;98102.41;5055183;28;20283;-59
2021/12/24 00:05:58;;;;;;;4.00;2.47;;;;;;;10.50;65.88;98109.44;5054995;28;20285;-59
2021/12/24 00:08:25;;;;;;;8.70;2.20;;;;;;;10.50;65.69;98093.78;5054886;28;20189;-58
2021/12/24 00:10:59;;;;;;;7.13;2.70;;;;;;;10.62;64.82;98108.13;5054441;28;20688;-55
2021/12/24 00:13:27;;;;;;;6.10;3.50;;;;;;;10.62;65.01;98092.44;5054871;28;20181;-56
2021/12/24 00:16:03;;;;;;;3.30;2.27;;;;;;;10.61;65.38;98111.69;5054856;28;20186;-58
2021/12/24 00:18:38;;;;;;;6.13;3.00;;;;;;;10.67;64.25;98092.78;5054820;28;20193;-57
2021/12/24 00:35:13;;;;;;;5.00;2.60;;;;;;;10.72;63.48;98090.50;5054488;28;20197;-57
2021/12/24 00:37:41;;;;;;;3.80;2.47;;;;;;;10.67;64.13;98079.72;5053115;28;20186;-57
2021/12/24 00:40:15;;;;;;;5.13;2.17;;;;;;;10.56;64.21;98088.72;5053709;28;20579;-57
2021/12/24 00:42:46;;;;;;;3.00;2.10;;;;;;;10.59;63.70;98088.38;5054343;28;20190;-56
2021/12/24 00:45:16;;;;;;;7.60;2.60;;;;;;;10.54;63.47;98084.66;5054292;28;20186;-57
2021/12/24 00:47:43;;;;;;;3.83;2.60;;;;;;;10.54;63.24;98087.25;5054172;28;20204;-57
2021/12/24 00:50:14;;;;;;;5.97;2.73;;;;;;;10.49;63.85;98092.97;5052131;28;20221;-57
2021/12/24 00:52:48;;;;;;;3.67;2.27;;;;;;;10.48;63.89;98088.72;5052867;28;20292;-56
2021/12/24 00:55:15;;;;;;;6.93;2.57;;;;;;;10.54;63.63;98082.03;5054137;28;20217;-57
2021/12/24 00:57:45;;;;;;;5.90;2.40;;;;;;;10.52;63.25;98079.59;5052739;28;20192;-56
2021/12/24 01:00:15;;;;;;;4.23;2.57;;;;;;;10.52;63.18;98073.56;5052047;28;20218;-57
2021/12/24 01:02:42;;;;;;;5.70;2.70;;;;;;;10.41;63.64;98075.53;5054343;28;20194;-57
2021/12/24 01:05:11;;;;;;;3.07;2.60;;;;;;;10.44;63.94;98071.75;5053899;28;20555;-57
2021/12/24 01:07:41;;;;;;;4.80;2.67;;;;;;;10.42;63.33;98076.31;5052550;28;20217;-57
2021/12/24 01:10:09;;;;;;;5.70;2.67;;;;;;;10.30;64.25;98076.63;5053031;28;20208;-58
2021/12/24 01:12:36;;;;;;;4.40;2.90;;;;;;;10.26;64.14;98072.69;5053646;28;20532;-59
2021/12/24 01:15:06;;;;;;;3.90;2.70;;;;;;;10.26;64.46;98084.94;5052358;28;20615;-59
2021/12/24 01:17:40;;;;;;;6.43;2.87;;;;;;;10.37;63.93;98087.22;5052476;28;20189;-57
2021/12/24 01:20:20;;;;;;;4.00;2.67;;;;;;;10.37;64.07;98084.63;5051751;28;20282;-57
2021/12/24 01:25:51;;;;;;;3.60;2.50;;;;;;;10.45;63.62;98089.03;5052132;28;20217;-57
2021/12/24 01:39:26;;;;;;;8.67;3.57;;;;;;;10.31;63.66;98096.50;5052022;28;20672;-56
2021/12/24 01:44:39;;;;;;;4.83;3.00;;;;;;;10.30;64.33;98099.28;5051913;28;20193;-57
2021/12/24 01:47:10;;;;;;;8.43;3.30;;;;;;;10.34;63.78;98096.19;5051821;28;20218;-59
2021/12/24 01:49:37;;;;;;;3.83;2.80;;;;;;;10.34;64.56;98095.38;5051231;28;20189;-57
2021/12/24 01:52:07;;;;;;;5.13;2.90;;;;;;;10.33;64.03;98101.56;5051625;28;20221;-59
2021/12/24 01:54:39;;;;;;;6.47;2.93;;;;;;;10.39;64.21;98093.13;5051602;28;20654;-59
2021/12/24 01:57:06;;;;;;;4.50;2.70;;;;;;;10.38;64.00;98080.22;5051631;28;20199;-57
2021/12/24 01:59:33;;;;;;;4.73;2.93;;;;;;;10.28;65.21;98088.22;5051295;28;20195;-57
2021/12/24 02:02:00;;;;;;;4.97;2.77;;;;;;;10.28;64.59;98083.00;5051419;28;20208;-58
2021/12/24 02:04:29;;;;;;;5.40;3.07;;;;;;;10.23;64.73;98077.44;5051531;28;20193;-56
2021/12/24 02:06:56;;;;;;;6.47;3.10;;;;;;;10.24;64.57;98076.47;5051496;28;20210;-59
2021/12/24 02:09:23;;;;;;;4.37;2.50;;;;;;;10.22;64.57;98071.41;5052644;28;20195;-57
2021/12/24 02:11:50;;;;;;;6.77;3.00;;;;;;;10.19;64.07;98075.16;5051834;28;20598;-55
2021/12/24 02:14:21;;;;;;;6.27;3.50;;;;;;;10.15;64.87;98067.78;5051301;28;20242;-57
2021/12/24 02:17:16;;;;;;;5.07;2.93;;;;;;;10.06;64.92;98066.19;5051378;28;20205;-56
2021/12/24 02:30:45;;;;;;;3.97;2.73;;;;;;;10.05;65.26;98044.50;5050392;28;20295;-56
2021/12/24 02:33:12;;;;;;;6.13;2.97;;;;;;;10.09;64.95;98032.78;5050963;28;20199;-58
2021/12/24 02:35:39;;;;;;;4.67;2.97;;;;;;;10.06;65.31;98040.91;5052215;28;20186;-54
2021/12/24 02:38:08;;;;;;;7.37;2.77;;;;;;;10.05;65.61;98034.06;5052179;28;20188;-58
2021/12/24 02:40:36;;;;;;;5.60;2.73;;;;;;;9.99;65.70;98035.53;5051342;28;20211;-59
2021/12/24 02:43:04;;;;;;;3.67;2.50;;;;;;;10.01;65.20;98025.78;5052127;28;20180;-57
2021/12/24 02:45:35;;;;;;;4.80;2.73;;;;;;;10.00;64.81;98038.94;5050751;28;20193;-57
2021/12/24 02:48:24;;;;;;;4.43;3.17;;;;;;;10.00;64.72;98031.13;5051966;28;20749;-56
2021/12/24 02:56:25;;;;;;;5.80;3.30;;;;;;;10.01;64.95;97999.69;5052002;28;20674;-57
2021/12/24 02:58:53;;;;;;;6.70;2.93;;;;;;;9.93;65.25;98012.72;5051957;28;20182;-57
2021/12/24 03:01:22;;;;;;;6.80;3.10;;;;;;;10.00;64.93;98010.28;5050139;28;20217;-56
2021/12/24 03:03:49;;;;;;;7.93;3.17;;;;;;;10.02;64.70;97982.25;5051858;28;20566;-56
2021/12/24 03:06:17;;;;;;;4.47;2.50;;;;;;;9.97;65.28;97980.13;5050456;28;20213;-56
2021/12/24 03:08:46;;;;;;;4.97;2.90;;;;;;;9.99;65.31;97991.22;5051724;28;20439;-57
2021/12/24 03:11:12;;;;;;;5.27;3.30;;;;;;;9.96;65.27;97980.28;5050896;28;20300;-57
2021/12/24 03:13:40;;;;;;;6.00;2.97;;;;;;;9.96;65.89;97977.69;5051708;28;20269;-56
2021/12/24 03:16:08;;;;;;;4.10;2.60;;;;;;;9.97;65.81;97979.31;5050413;28;20260;-57
2021/12/24 03:18:38;;;;;;;3.57;3.00;;;;;;;9.97;65.43;97981.91;5050329;28;20194;-59
2021/12/24 03:21:09;;;;;;;6.00;3.00;;;;;;;9.96;65.86;97988.94;5049750;28;20220;-59
2021/12/24 03:23:40;;;;;;;4.60;3.00;;;;;;;9.97;65.78;97979.31;5050406;28;20206;-54
2021/12/24 03:26:11;;;;;;;4.80;2.73;;;;;;;9.92;66.33;97969.38;5051586;28;20193;-58
2021/12/24 03:28:38;;;;;;;5.17;3.10;;;;;;;9.94;66.55;97959.59;5050178;28;20542;-54
2021/12/24 03:31:05;;;;;;;6.60;3.33;;;;;;;9.92;65.56;97968.56;5050871;28;20212;-57
2021/12/24 03:33:33;;;;;;;6.03;3.20;;;;;;;9.89;66.37;97974.91;5050237;28;20217;-57
2021/12/24 03:36:01;;;;;;;4.63;2.80;;;;;;;9.92;66.20;97958.94;5050205;28;20202;-58
2021/12/24 03:38:28;;;;;;;6.53;3.27;;;;;;;9.94;66.40;97949.19;5050184;28;20186;-56
2021/12/24 03:40:55;;;;;;;7.73;2.90;;;;;;;9.88;66.94;97955.03;5049504;28;20752;-56
2021/12/24 03:43:25;;;;;;;4.40;3.30;;;;;;;9.88;66.97;97955.03;5051508;28;20181;-57
2021/12/24 03:46:00;;;;;;;3.80;2.67;;;;;;;9.93;66.89;97946.72;5050138;28;20266;-54
2021/12/24 03:48:40;;;;;;;4.00;2.97;;;;;;;9.90;66.97;97942.66;5051516;28;20254;-57
2021/12/24 03:51:24;;;;;;;5.13;2.90;;;;;;;9.85;67.64;97929.31;5049535;28;20216;-55
2021/12/24 03:56:38;;;;;;;5.87;3.17;;;;;;;9.89;66.94;97933.22;5050077;28;20194;-57
2021/12/24 03:59:07;;;;;;;5.93;3.37;;;;;;;9.92;66.95;97926.84;5050061;28;20190;-56
2021/12/24 04:01:38;;;;;;;4.57;3.20;;;;;;;9.88;66.97;97929.78;5050544;28;20229;-56
2021/12/24 04:04:40;;;;;;;7.03;3.00;;;;;;;9.86;67.71;97936.94;5029260;28;20804;-56
2021/12/24 04:07:25;;;;;;;7.77;3.07;;;;;;;9.88;67.10;97934.19;5053148;28;20208;-57
2021/12/24 04:10:35;;;;;;;8.40;2.80;;;;;;;10.00;66.20;97937.25;5052812;28;20221;-57
2021/12/24 04:13:22;;;;;;;4.80;3.20;;;;;;;9.92;66.85;97942.47;5047416;28;20671;-58
2021/12/24 04:15:50;;;;;;;5.40;3.27;;;;;;;9.92;67.15;97943.31;5053771;28;20658;-57
2021/12/24 04:18:23;;;;;;;6.73;3.30;;;;;;;9.83;67.39;97937.25;5054800;28;20188;-56
2021/12/24 04:26:20;;;;;;;5.33;3.17;;;;;;;9.73;67.86;97921.81;5053378;28;20193;-59
2021/12/24 04:28:47;;;;;;;4.13;2.80;;;;;;;9.71;68.21;97931.56;5053219;28;20628;-58
2021/12/24 04:31:16;;;;;;;6.07;3.30;;;;;;;9.69;68.61;97935.31;5053910;28;20570;-57
2021/12/24 04:33:49;;;;;;;5.90;3.30;;;;;;;9.67;68.24;97917.25;5053558;28;20208;-60
2021/12/24 04:36:39;;;;;;;6.80;3.43;;;;;;;9.71;68.03;97922.94;5053540;28;20224;-59
2021/12/24 04:39:30;;;;;;;7.50;3.27;;;;;;;9.70;68.29;97929.13;5053191;28;20692;-55
2021/12/24 05:01:10;;;;;;;4.53;3.20;;;;;;;9.74;68.70;97922.59;5018384;28;20197;-59
2021/12/24 05:01:37;;;;;;;7.73;3.53;;;;;;;9.69;69.18;97927.47;5053302;28;20209;-55
2021/12/24 05:04:07;;;;;;;5.77;3.10;;;;;;;9.71;68.73;97934.19;5052680;28;20729;-53
2021/12/24 05:06:39;;;;;;;5.53;3.50;;;;;;;9.75;68.92;97921.63;5052502;28;20283;-56
2021/12/24 05:09:09;;;;;;;6.07;3.17;;;;;;;9.80;68.11;97919.34;5053839;28;20695;-57
2021/12/24 05:11:37;;;;;;;7.47;3.53;;;;;;;9.78;69.52;97926.50;5051721;28;20219;-59
2021/12/24 05:14:06;;;;;;;4.53;3.20;;;;;;;9.78;68.88;97918.69;5053782;28;20207;-55
2021/12/24 05:16:46;;;;;;;5.00;3.03;;;;;;;9.78;68.57;97907.47;5051853;28;20280;-57
2021/12/24 05:22:33;;;;;;;8.23;3.40;;;;;;;9.77;69.06;97921.47;5048783;28;20201;-56
2021/12/24 05:25:07;;;;;;;5.10;3.47;;;;;;;9.73;69.59;97920.97;5052324;28;20201;-56
2021/12/24 05:27:35;;;;;;;6.90;3.57;;;;;;;9.73;69.12;97916.59;5053423;28;20685;-57
2021/12/24 05:30:04;;;;;;;5.40;3.70;;;;;;;9.73;69.53;97910.56;5051586;28;20228;-57
2021/12/24 05:32:31;;;;;;;7.70;3.60;;;;;;;9.71;69.69;97909.91;5052049;28;20199;-57
2021/12/24 05:34:59;;;;;;;6.70;3.33;;;;;;;9.67;70.02;97911.19;5052051;28;20276;-57
2021/12/24 05:37:26;;;;;;;4.70;3.37;;;;;;;9.70;69.55;97916.09;5053279;28;20186;-57
2021/12/24 05:39:53;;;;;;;6.37;3.50;;;;;;;9.73;69.92;97931.41;5052943;28;20192;-57
2021/12/24 05:42:31;;;;;;;5.47;3.37;;;;;;;9.67;69.50;97927.66;5052000;28;20665;-56
2021/12/24 05:45:03;;;;;;;5.93;3.30;;;;;;;9.72;69.18;97928.00;5051922;28;20560;-57
2021/12/24 05:47:49;;;;;;;5.60;3.47;;;;;;;9.67;69.19;97932.88;5054957;28;20213;-59
2021/12/24 05:50:18;;;;;;;5.23;3.23;;;;;;;9.64;69.46;97924.56;5051369;28;20632;-59
2021/12/24 05:52:44;;;;;;;7.30;3.37;;;;;;;9.65;69.60;97926.19;5052935;28;20182;-59
2021/12/24 05:55:21;;;;;;;5.80;3.40;;;;;;;9.62;69.50;97929.09;5051677;28;20271;-55
2021/12/24 05:57:56;;;;;;;5.17;3.20;;;;;;;9.59;69.74;97914.63;5051610;28;20662;-57
2021/12/24 06:00:23;;;;;;;6.20;3.33;;;;;;;9.56;70.25;97909.75;5050832;28;20213;-56
2021/12/24 06:02:50;;;;;;;5.83;3.43;;;;;;;9.64;69.87;97911.53;5051825;28;20198;-55
2021/12/24 06:05:18;;;;;;;5.93;3.17;;;;;;;9.61;69.54;97920.50;5052711;28;20192;-59
2021/12/24 06:07:45;;;;;;;5.97;3.20;;;;;;;9.57;69.85;97921.78;5052630;28;20212;-56
2021/12/24 06:10:15;;;;;;;7.37;3.30;;;;;;;9.56;69.72;97914.94;5052010;28;20299;-60
2021/12/24 06:12:42;;;;;;;5.60;3.42;;;;;;;9.59;69.16;97925.06;5051910;28;20443;-57
2021/12/24 06:15:09;;;;;;;4.13;3.40;;;;;;;9.56;69.45;97920.97;5053088;28;20196;-57
2021/12/24 06:17:38;;;;;;;5.57;3.30;;;;;;;9.54;70.18;97938.53;5051430;28;20185;-57
2021/12/24 06:20:07;;;;;;;8.57;3.23;;;;;;;9.57;70.45;97927.81;5051829;28;20263;-59
2021/12/24 06:22:35;;;;;;;6.10;3.00;;;;;;;9.55;69.56;97921.94;5052581;28;20193;-57
2021/12/24 06:25:02;;;;;;;6.70;3.20;;;;;;;9.52;69.76;97927.50;5052476;28;20192;-57
2021/12/24 06:27:30;;;;;;;6.43;4.07;;;;;;;9.51;70.78;97925.03;5052296;28;20212;-59
2021/12/24 06:29:56;;;;;;;5.47;3.50;;;;;;;9.52;70.69;97913.66;5050814;28;20185;-57
2021/12/24 06:32:23;;;;;;;5.10;3.57;;;;;;;9.51;70.03;97910.25;5052289;28;20189;-56
2021/12/24 06:34:50;;;;;;;5.40;3.30;;;;;;;9.51;70.01;97912.00;5052379;28;20198;-57
2021/12/24 06:37:17;;;;;;;5.57;3.10;;;;;;;9.53;70.10;97916.09;5052345;28;20191;-57
2021/12/24 06:39:45;;;;;;;6.00;3.97;;;;;;;9.48;70.97;97913.16;5051662;28;20185;-58
2021/12/24 06:42:12;;;;;;;5.00;2.83;;;;;;;9.46;71.42;97909.91;5051987;28;20216;-59
2021/12/24 06:44:39;;;;;;;7.57;3.33;;;;;;;9.51;70.89;97931.09;5052396;28;20589;-58
2021/12/24 06:47:06;;;;;;;4.07;3.00;;;;;;;9.55;71.00;97916.72;5052023;28;20185;-58
2021/12/24 06:49:33;;;;;;;5.67;3.00;;;;;;;9.55;70.26;97928.94;5051644;28;20670;-56
2021/12/24 06:52:01;;;;;;;7.53;3.77;;;;;;;9.54;70.19;97929.94;5051873;28;20206;-59
2021/12/24 06:54:29;;;;;;;9.03;6.47;;;;;;;9.51;71.20;97919.81;5052040;28;20267;-57
2021/12/24 06:56:58;;;;;;;9.30;5.47;;;;;;;9.55;71.39;97939.38;5050698;28;20189;-54
2021/12/24 06:59:24;;;;;;;7.20;3.77;;;;;;;9.54;70.74;97928.13;5050735;28;20245;-57
2021/12/24 07:01:52;;;;;;;5.20;3.60;;;;;;;9.56;71.15;97933.19;5049985;28;20212;-55
2021/12/24 07:04:18;;;;;;;5.27;3.43;;;;;;;9.56;70.69;97913.16;5051793;28;20258;-59
2021/12/24 07:06:46;;;;;;;5.77;4.33;;;;;;;9.53;71.53;97934.34;5051778;28;20659;-55
2021/12/24 07:09:13;;;;;;;5.83;3.60;;;;;;;9.55;71.47;97934.97;5051725;28;20266;-58
2021/12/24 07:11:40;;;;;;;7.87;3.90;;;;;;;9.52;71.16;97929.28;5050989;28;20208;-55
2021/12/24 07:14:09;;;;;;;17.43;9.73;;;;;;;9.48;72.04;97935.78;5051779;28;20204;-56
2021/12/24 07:16:36;;;;;;;8.57;5.50;;;;;;;9.42;71.91;97930.25;5051820;28;20243;-57
2021/12/24 07:19:03;;;;;;;5.67;3.70;;;;;;;9.43;72.40;97913.63;5051615;28;20650;-56
2021/12/24 07:21:30;;;;;;;4.20;2.93;;;;;;;9.41;72.23;97926.00;5051326;28;20211;-57
2021/12/24 07:23:57;;;;;;;5.73;3.57;;;;;;;9.36;72.29;97928.28;5051732;28;20191;-56
2021/12/24 07:26:24;;;;;;;6.97;3.57;;;;;;;9.38;72.58;97926.31;5051651;28;20189;-53
2021/12/24 07:28:50;;;;;;;5.03;3.10;;;;;;;9.35;74.01;97933.66;5051524;28;20208;-55
2021/12/24 07:31:19;;;;;;;6.00;3.30;;;;;;;9.30;74.67;97918.50;5050863;28;20204;-57
2021/12/24 07:33:45;;;;;;;6.37;3.17;;;;;;;9.28;75.03;97912.63;5051436;28;20284;-56
2021/12/24 07:36:13;;;;;;;5.73;3.23;;;;;;;9.25;74.96;97918.16;5051445;28;20188;-54
2021/12/24 07:38:40;;;;;;;7.60;3.23;;;;;;;9.21;75.28;97924.66;5051481;28;20216;-55
2021/12/24 07:41:07;;;;;;;5.67;3.17;;;;;;;9.15;75.69;97918.31;5053594;28;20227;-56
2021/12/24 07:43:34;;;;;;;7.73;3.43;;;;;;;9.11;76.83;97912.59;5055663;28;20189;-56
2021/12/24 07:46:01;;;;;;;5.33;3.23;;;;;;;9.12;76.14;97913.41;5055471;28;20654;-54
2021/12/24 07:48:32;;;;;;;5.00;3.50;;;;;;;9.10;75.67;97912.75;5055335;28;20294;-57
2021/12/24 07:53:45;;;;;;;7.70;3.37;;;;;;;9.11;76.24;97925.59;5055329;28;20187;-56
2021/12/24 07:56:11;;;;;;;5.73;3.50;;;;;;;9.08;75.77;97919.91;5055200;28;20201;-58
2021/12/24 07:58:38;;;;;;;5.03;3.50;;;;;;;9.11;75.74;97917.00;5055297;28;20191;-56
2021/12/24 08:01:05;;;;;;;7.60;4.60;;;;;;;9.07;75.36;97916.47;5054504;28;20582;-56
2021/12/24 08:03:33;;;;;;;6.57;3.80;;;;;;;9.05;76.03;97923.63;5055019;28;20192;-58
2021/12/24 08:06:00;;;;;;;7.97;3.63;;;;;;;9.08;76.08;97922.53;5055058;28;20192;-59
2021/12/24 08:08:27;;;;;;;4.60;3.03;;;;;;;9.07;76.07;97932.09;5055186;28;20566;-56
2021/12/24 08:10:54;;;;;;;5.77;3.20;;;;;;;9.08;76.35;97935.53;5054244;28;20220;-56
2021/12/24 08:13:20;;;;;;;5.93;3.63;;;;;;;9.06;76.88;97927.88;5053611;28;20215;-56
2021/12/24 08:15:50;;;;;;;7.40;3.30;;;;;;;9.03;79.43;97920.38;5054762;28;20685;-55
2021/12/24 08:18:17;;;;;;;6.90;3.57;;;;;;;8.95;81.51;97925.59;5054774;28;20239;-55
2021/12/24 08:20:45;;;;;;;6.33;3.60;;;;;;;8.74;83.97;97925.97;5054116;28;20205;-55
2021/12/24 08:23:12;;;;;;;6.10;3.83;;;;;;;8.69;84.51;97924.66;5053593;28;20191;-56
2021/12/24 08:25:39;;;;;;;7.47;4.17;;;;;;;8.62;86.14;97917.63;5054770;28;20264;-55
2021/12/24 08:28:06;;;;;;;8.40;4.03;;;;;;;8.55;86.51;97925.25;5054545;28;20570;-56
2021/12/24 08:30:33;;;;;;;6.10;3.30;;;;;;;8.48;86.45;97932.81;5053846;28;20279;-58
2021/12/24 08:33:01;;;;;;;5.87;3.70;;;;;;;8.58;84.71;97937.94;5054510;28;20192;-56
2021/12/24 08:35:28;;;;;;;7.33;3.90;;;;;;;8.47;86.54;97926.00;5054699;28;20226;-56
2021/12/24 08:37:58;;;;;;;9.93;4.47;;;;;;;8.32;88.40;97920.56;5054465;28;20186;-57
2021/12/24 08:40:26;;;;;;;5.50;3.83;;;;;;;8.30;89.38;97938.09;5053738;28;20569;-53
2021/12/24 08:42:53;;;;;;;6.67;3.93;;;;;;;8.35;87.89;97938.47;5054218;28;20559;-59
2021/12/24 08:45:19;;;;;;;5.87;3.83;;;;;;;8.33;88.35;97927.38;5054324;28;20657;-57
2021/12/24 08:47:47;;;;;;;7.07;3.97;;;;;;;8.29;88.80;97933.88;5053150;28;20559;-56
2021/12/24 08:50:14;;;;;;;7.27;4.10;;;;;;;8.24;90.73;97913.50;5053772;28;20208;-58
2021/12/24 08:52:43;;;;;;;5.67;3.90;;;;;;;8.20;91.17;97926.97;5053300;28;20186;-57
2021/12/24 08:55:12;;;;;;;7.10;4.17;;;;;;;8.16;91.69;97921.25;5054124;28;20206;-56
2021/12/24 08:57:39;;;;;;;8.23;3.90;;;;;;;8.18;91.21;97915.91;5054013;28;20195;-56
2021/12/24 09:00:09;;;;;;;8.17;4.07;;;;;;;8.16;93.22;97923.84;5053411;28;20723;-58
2021/12/24 09:02:36;;;;;;;6.33;4.10;;;;;;;8.11;93.96;97913.09;5052708;28;20607;-57
2021/12/24 09:05:03;;;;;;;6.63;4.10;;;;;;;8.11;93.28;97913.94;5053980;28;20256;-57
2021/12/24 09:07:31;;;;;;;8.73;5.30;;;;;;;8.10;94.15;97911.47;5054079;28;20703;-55
2021/12/24 09:09:58;;;;;;;16.73;10.43;;;;;;;8.11;94.38;97913.09;5053001;28;20607;-59
2021/12/24 09:12:26;;;;;;;6.93;4.17;;;;;;;8.05;95.37;97911.94;5053805;28;20561;-57
2021/12/24 09:14:53;;;;;;;7.83;4.77;;;;;;;8.06;94.09;97910.97;5053727;28;20187;-55
2021/12/24 09:17:21;;;;;;;9.20;5.07;;;;;;;8.10;94.46;97914.91;5053762;28;20192;-57
2021/12/24 09:19:50;;;;;;;6.70;4.60;;;;;;;8.06;95.21;97917.94;5053140;28;20180;-59
2021/12/24 09:22:19;;;;;;;6.67;4.50;;;;;;;8.08;95.34;97922.03;5053777;28;20179;-57
2021/12/24 09:24:49;;;;;;;9.43;5.07;;;;;;;8.15;94.71;97921.41;5053494;28;20194;-56
2021/12/24 09:27:16;;;;;;;11.83;6.17;;;;;;;8.11;94.96;97926.09;5053690;28;20211;-53
2021/12/24 09:29:44;;;;;;;8.20;4.87;;;;;;;8.13;94.88;97926.75;5052988;28;20219;-59
2021/12/24 09:32:11;;;;;;;12.33;7.53;;;;;;;8.16;95.83;97923.06;5053417;28;20648;-57
2021/12/24 09:34:38;;;;;;;10.40;7.10;;;;;;;8.12;96.09;97912.97;5053367;28;20196;-57
2021/12/24 09:37:06;;;;;;;10.87;5.50;;;;;;;8.16;96.29;97912.66;5053280;28;20191;-56
2021/12/24 09:39:32;;;;;;;7.50;5.80;;;;;;;8.17;95.84;97914.28;5053157;28;20183;-61
2021/12/24 09:42:00;;;;;;;6.57;5.07;;;;;;;8.20;95.63;97906.19;5053231;28;20215;-56
2021/12/24 09:44:27;;;;;;;8.67;5.27;;;;;;;8.21;95.48;97906.00;5053261;28;20185;-59
2021/12/24 09:46:56;;;;;;;6.33;5.33;;;;;;;8.19;96.52;97892.34;5053232;28;20191;-58
2021/12/24 09:49:24;;;;;;;6.50;4.10;;;;;;;8.21;96.50;97906.00;5053053;28;20230;-58
2021/12/24 09:51:52;;;;;;;4.93;4.03;;;;;;;8.20;94.81;97909.59;5052512;28;20239;-56
2021/12/24 09:54:21;;;;;;;7.43;4.33;;;;;;;8.19;95.75;97905.34;5053464;28;20196;-59
2021/12/24 09:56:49;;;;;;;5.80;3.57;;;;;;;8.22;94.35;97899.03;5052997;28;20703;-56
2021/12/24 09:59:16;;;;;;;4.33;3.10;;;;;;;8.23;94.94;97891.06;5052879;28;20199;-56
2021/12/24 10:01:50;;;;;;;4.83;2.77;;;;;;;8.26;95.13;97892.56;5052347;28;20207;-58
2021/12/24 10:04:21;;;;;;;5.03;3.50;;;;;;;8.27;95.02;97895.00;5053251;28;20192;-59
2021/12/24 10:06:52;;;;;;;3.50;2.47;;;;;;;8.28;96.03;97885.44;5052816;28;20207;-57
2021/12/24 10:09:20;;;;;;;4.90;2.70;;;;;;;8.27;96.18;97884.59;5052703;28;20231;-59
2021/12/24 10:11:50;;;;;;;3.93;3.00;;;;;;;8.32;94.59;97876.34;5051862;28;20234;-56
2021/12/24 10:14:19;;;;;;;3.50;2.33;;;;;;;8.30;96.05;97883.50;5051518;28;20200;-57
2021/12/24 10:16:49;;;;;;;4.40;2.10;;;;;;;8.32;96.07;97863.34;5052567;28;20207;-57
2021/12/24 10:19:16;;;;;;;4.20;2.83;;;;;;;8.28;96.43;97873.22;5052615;28;20195;-57
2021/12/24 10:21:45;;;;;;;2.10;1.40;;;;;;;8.34;94.47;97874.41;5051566;28;20207;-57
2021/12/24 10:24:15;;;;;;;3.43;2.07;;;;;;;8.41;94.96;97856.38;5052503;28;20184;-58
2021/12/24 10:26:45;;;;;;;2.53;2.03;;;;;;;8.45;95.98;97864.72;5052390;28;20183;-58
2021/12/24 10:29:15;;;;;;;4.60;3.10;;;;;;;8.40;94.95;97859.97;5052210;28;20199;-59
2021/12/24 10:31:44;;;;;;;4.30;2.10;;;;;;;8.46;93.75;97859.34;5051811;28;20257;-58
2021/12/24 10:34:23;;;;;;;2.90;2.00;;;;;;;8.44;94.77;97847.47;5052273;28;20188;-59
2021/12/24 10:37:04;;;;;;;1.50;1.17;;;;;;;8.48;94.07;97856.59;5052499;28;20183;-57
2021/12/24 10:39:35;;;;;;;2.57;2.10;;;;;;;8.46;95.32;97840.34;5052193;28;20666;-59
2021/12/24 10:42:06;;;;;;;1.83;1.30;;;;;;;8.51;93.87;97845.88;5051957;28;20222;-58
2021/12/24 10:44:35;;;;;;;3.07;1.97;;;;;;;8.55;92.43;97850.63;5052050;28;20270;-59
2021/12/24 10:47:09;;;;;;;1.93;1.43;;;;;;;8.56;94.56;97851.44;5052108;28;20180;-59
2021/12/24 10:55:10;;;;;;;2.60;1.40;;;;;;;8.56;94.42;97852.25;5052125;28;20184;-59
2021/12/24 10:57:39;;;;;;;1.97;1.20;;;;;;;8.49;93.99;97856.47;5051996;28;20215;-59
2021/12/24 11:00:13;;;;;;;1.63;1.27;;;;;;;8.65;93.16;97853.09;5051285;28;20661;-56
2021/12/24 11:02:41;;;;;;;1.10;1.00;;;;;;;8.56;93.70;97857.47;5051941;28;20184;-58
2021/12/24 11:05:24;;;;;;;1.33;0.90;;;;;;;8.59;92.92;97853.72;5051902;28;20591;-57
2021/12/24 11:07:52;;;;;;;1.70;1.00;;;;;;;8.60;93.56;97855.34;5051943;28;20187;-57
2021/12/24 11:10:22;;;;;;;2.10;0.90;;;;;;;8.63;93.76;97846.44;5051041;28;20211;-57
2021/12/24 11:12:50;;;;;;;1.65;1.20;;;;;;;8.55;95.26;97842.00;5051074;28;20955;-57
2021/12/24 11:15:27;;;;;;;2.10;1.20;;;;;;;8.61;94.20;97828.34;5051247;28;20210;-58
2021/12/24 11:17:55;;;;;;;1.97;1.07;;;;;;;8.59;93.44;97824.31;5051832;28;20179;-57
2021/12/24 11:20:22;;;;;;;1.43;1.00;;;;;;;8.60;95.26;97812.94;5049821;28;20220;-59
2021/12/24 11:23:00;;;;;;;0.90;0.80;;;;;;;8.57;93.46;97816.63;5051700;28;20195;-59
2021/12/24 11:25:30;;;;;;;1.63;0.90;;;;;;;8.62;94.13;97824.00;5051616;28;20580;-57
2021/12/24 11:27:57;;;;;;;1.83;0.73;;;;;;;8.82;91.63;97816.72;5051640;28;20649;-57
2021/12/24 11:30:26;;;;;;;0.93;0.70;;;;;;;8.88;91.73;97810.06;5050913;28;20216;-58
2021/12/24 11:32:53;;;;;;;2.83;0.70;;;;;;;8.96;90.48;97813.50;5051814;28;20310;-59
2021/12/24 11:35:21;;;;;;;0.80;0.60;;;;;;;9.04;89.88;97817.09;5051534;28;20649;-58
2021/12/24 11:37:51;;;;;;;0.90;0.70;;;;;;;9.06;89.39;97815.94;5051618;28;20184;-58
2021/12/24 11:40:21;;;;;;;1.40;0.60;;;;;;;9.05;89.65;97808.28;5050864;28;20207;-58
2021/12/24 11:42:52;;;;;;;1.37;0.70;;;;;;;9.05;89.51;97800.47;5051522;28;20182;-56
2021/12/24 11:45:22;;;;;;;0.70;0.60;;;;;;;9.10;89.45;97798.22;5050344;28;20200;-59
2021/12/24 11:47:49;;;;;;;0.70;0.50;;;;;;;9.19;89.91;97797.25;5051445;28;20669;-58
2021/12/24 11:50:17;;;;;;;1.97;0.60;;;;;;;9.13;89.94;97792.69;5050661;28;20211;-58
2021/12/24 11:52:46;;;;;;;0.83;0.43;;;;;;;9.18;87.46;97803.44;5051348;28;20184;-58
2021/12/24 11:55:13;;;;;;;2.13;0.60;;;;;;;9.18;87.82;97797.38;5051405;28;20661;-57
2021/12/24 11:57:53;;;;;;;2.40;1.37;;;;;;;9.15;89.64;97794.13;5051452;28;20188;-57
2021/12/24 12:00:26;;;;;;;1.97;1.13;;;;;;;9.12;88.10;97794.47;5050768;28;20294;-59
2021/12/24 12:02:53;;;;;;;1.80;1.07;;;;;;;9.09;89.96;97797.38;5051278;28;20191;-59
2021/12/24 12:05:26;;;;;;;1.07;0.60;;;;;;;9.09;89.01;97799.97;5051299;28;20204;-58
2021/12/24 12:08:39;;;;;;;1.60;0.87;;;;;;;9.04;90.16;97794.44;5051318;28;20222;-57
2021/12/24 12:11:24;;;;;;;3.73;2.07;;;;;;;9.04;88.49;97796.25;5050924;28;20482;-57
2021/12/24 12:13:57;;;;;;;2.23;1.27;;;;;;;8.93;90.15;97800.00;5050185;28;20284;-58
2021/12/24 12:16:26;;;;;;;5.80;2.20;;;;;;;8.93;90.94;97782.56;5051190;28;20195;-59
2021/12/24 12:19:13;;;;;;;2.87;1.63;;;;;;;8.98;90.20;97782.09;5051248;28;20191;-58
2021/12/24 12:21:41;;;;;;;1.40;0.90;;;;;;;8.96;89.37;97782.25;5050477;28;20219;-58
2021/12/24 12:27:00;;;;;;;5.17;2.57;;;;;;;8.97;89.51;97785.69;5051763;28;20667;-59
2021/12/24 12:29:41;;;;;;;1.27;1.00;;;;;;;8.92;89.66;97783.56;5054490;28;20208;-58
2021/12/24 12:32:27;;;;;;;2.03;1.40;;;;;;;8.97;90.57;97775.28;5054398;28;20206;-58
2021/12/24 12:34:59;;;;;;;2.00;1.30;;;;;;;9.03;90.35;97768.59;5054579;28;20198;-59
2021/12/24 12:37:28;;;;;;;2.33;1.40;;;;;;;9.08;89.67;97763.72;5054793;28;20188;-57
2021/12/24 12:39:58;;;;;;;2.23;1.50;;;;;;;9.01;90.30;97774.78;5053829;28;20192;-59
2021/12/24 12:43:02;;;;;;;1.77;1.07;;;;;;;9.05;90.59;97769.25;5054374;28;20188;-55
2021/12/24 12:46:00;;;;;;;4.70;2.97;;;;;;;8.91;91.52;97765.50;5054484;28;20250;-59
2021/12/24 12:48:43;;;;;;;2.07;1.27;;;;;;;8.95;90.04;97759.00;5054379;28;20202;-59
2021/12/24 12:51:10;;;;;;;2.93;1.33;;;;;;;8.95;91.47;97770.22;5053826;28;20645;-59
2021/12/24 12:53:40;;;;;;;2.70;1.10;;;;;;;8.93;91.19;97746.13;5054211;28;20599;-59
2021/12/24 12:56:27;;;;;;;2.10;1.00;;;;;;;8.94;91.50;97750.38;5054221;28;20184;-58
2021/12/24 12:58:59;;;;;;;2.57;1.00;;;;;;;8.83;92.60;97751.50;5054219;28;20541;-59
2021/12/24 13:01:28;;;;;;;2.80;1.20;;;;;;;8.92;92.92;97744.50;5053399;28;20211;-57
2021/12/24 13:04:14;;;;;;;4.10;1.90;;;;;;;9.05;92.80;97740.63;5054044;28;20185;-58
2021/12/24 13:06:54;;;;;;;2.30;1.10;;;;;;;9.22;90.86;97725.78;5054014;28;20188;-59
2021/12/24 13:09:24;;;;;;;1.17;0.90;;;;;;;9.23;89.96;97736.06;5053853;28;20708;-59
2021/12/24 13:11:53;;;;;;;4.60;2.00;;;;;;;9.23;91.44;97728.25;5053030;28;20439;-59
2021/12/24 13:14:21;;;;;;;3.77;2.20;;;;;;;9.32;89.88;97731.63;5053802;28;20912;-57
2021/12/24 13:16:54;;;;;;;1.63;0.90;;;;;;;9.15;91.41;97721.22;5054107;28;20199;-58
2021/12/24 13:19:31;;;;;;;6.57;3.97;;;;;;;9.33;90.30;97722.84;5053744;28;20203;-59
2021/12/24 13:24:47;;;;;;;6.57;3.47;;;;;;;9.12;93.17;97728.56;5053653;28;20191;-59